sensor_id;sensor_type;location;lat;lon;timestamp;P1;durP1;ratioP1;P2;durP2;ratioP2
73593;SDS011;64760;53.404;23.498;2023-03-04T00:02:24;19.05;;;10.18;;
73593;SDS011;64760;53.404;23.498;2023-03-04T00:04:50;23.30;;;10.65;;
73593;SDS011;64760;53.404;23.498;2023-03-04T00:07:17;26.02;;;14.18;;
73593;SDS011;64760;53.404;23.498;2023-03-04T00:09:44;21.23;;;10.43;;
73593;SDS011;64760;53.404;23.498;2023-03-04T00:14:37;20.85;;;11.13;;
73593;SDS011;64760;53.404;23.498;2023-03-04T00:17:04;11.82;;;7.57;;
73593;SDS011;64760;53.404;23.498;2023-03-04T00:19:31;28.13;;;16.40;;
73593;SDS011;64760;53.404;23.498;2023-03-04T00:21:58;26.77;;;13.70;;
73593;SDS011;64760;53.404;23.498;2023-03-04T00:24:24;22.15;;;12.20;;
73593;SDS011;64760;53.404;23.498;2023-03-04T00:26:51;25.80;;;13.18;;
73593;SDS011;64760;53.404;23.498;2023-03-04T00:29:18;19.58;;;9.98;;
73593;SDS011;64760;53.404;23.498;2023-03-04T00:31:45;17.73;;;8.63;;
73593;SDS011;64760;53.404;23.498;2023-03-04T00:34:11;21.30;;;10.35;;
73593;SDS011;64760;53.404;23.498;2023-03-04T00:36:38;19.13;;;11.38;;
73593;SDS011;64760;53.404;23.498;2023-03-04T00:39:04;22.92;;;13.30;;
73593;SDS011;64760;53.404;23.498;2023-03-04T00:41:30;17.48;;;9.15;;
73593;SDS011;64760;53.404;23.498;2023-03-04T00:43:56;25.10;;;13.43;;
73593;SDS011;64760;53.404;23.498;2023-03-04T00:46:23;22.48;;;10.13;;
73593;SDS011;64760;53.404;23.498;2023-03-04T00:48:50;16.73;;;9.48;;
73593;SDS011;64760;53.404;23.498;2023-03-04T00:51:17;23.40;;;11.13;;
73593;SDS011;64760;53.404;23.498;2023-03-04T00:53:43;21.17;;;11.48;;
73593;SDS011;64760;53.404;23.498;2023-03-04T00:56:10;21.75;;;11.77;;
73593;SDS011;64760;53.404;23.498;2023-03-04T00:58:37;13.75;;;7.47;;
73593;SDS011;64760;53.404;23.498;2023-03-04T01:05:59;19.90;;;8.02;;
73593;SDS011;64760;53.404;23.498;2023-03-04T01:08:25;20.80;;;9.00;;
73593;SDS011;64760;53.404;23.498;2023-03-04T01:10:52;23.25;;;9.90;;
73593;SDS011;64760;53.404;23.498;2023-03-04T01:13:18;15.15;;;7.65;;
73593;SDS011;64760;53.404;23.498;2023-03-04T01:15:45;22.67;;;10.93;;
73593;SDS011;64760;53.404;23.498;2023-03-04T01:18:11;19.60;;;10.48;;
73593;SDS011;64760;53.404;23.498;2023-03-04T01:20:37;14.15;;;7.10;;
73593;SDS011;64760;53.404;23.498;2023-03-04T01:23:03;14.38;;;7.28;;
73593;SDS011;64760;53.404;23.498;2023-03-04T01:25:30;13.88;;;6.60;;
73593;SDS011;64760;53.404;23.498;2023-03-04T01:27:58;15.73;;;7.05;;
73593;SDS011;64760;53.404;23.498;2023-03-04T01:30:25;24.80;;;13.63;;
73593;SDS011;64760;53.404;23.498;2023-03-04T01:32:51;10.40;;;5.03;;
73593;SDS011;64760;53.404;23.498;2023-03-04T01:35:17;15.75;;;7.78;;
73593;SDS011;64760;53.404;23.498;2023-03-04T01:37:43;18.50;;;9.73;;
73593;SDS011;64760;53.404;23.498;2023-03-04T01:40:10;17.35;;;8.52;;
73593;SDS011;64760;53.404;23.498;2023-03-04T01:42:37;19.92;;;11.65;;
73593;SDS011;64760;53.404;23.498;2023-03-04T01:45:05;23.60;;;10.75;;
73593;SDS011;64760;53.404;23.498;2023-03-04T01:47:32;14.45;;;5.57;;
73593;SDS011;64760;53.404;23.498;2023-03-04T01:50:02;19.63;;;8.98;;
73593;SDS011;64760;53.404;23.498;2023-03-04T01:52:31;15.80;;;9.13;;
73593;SDS011;64760;53.404;23.498;2023-03-04T01:54:58;17.13;;;7.53;;
73593;SDS011;64760;53.404;23.498;2023-03-04T01:57:25;17.40;;;7.50;;
73593;SDS011;64760;53.404;23.498;2023-03-04T02:03:01;18.42;;;7.50;;
73593;SDS011;64760;53.404;23.498;2023-03-04T02:05:42;20.40;;;11.85;;
73593;SDS011;64760;53.404;23.498;2023-03-04T02:08:11;12.73;;;4.82;;
73593;SDS011;64760;53.404;23.498;2023-03-04T02:10:39;18.08;;;9.48;;
73593;SDS011;64760;53.404;23.498;2023-03-04T02:13:08;10.43;;;6.57;;
73593;SDS011;64760;53.404;23.498;2023-03-04T02:18:03;22.35;;;10.73;;
73593;SDS011;64760;53.404;23.498;2023-03-04T02:20:44;21.33;;;9.35;;
73593;SDS011;64760;53.404;23.498;2023-03-04T02:23:44;16.63;;;8.20;;
73593;SDS011;64760;53.404;23.498;2023-03-04T02:26:16;16.77;;;8.30;;
73593;SDS011;64760;53.404;23.498;2023-03-04T02:28:47;17.52;;;6.55;;
73593;SDS011;64760;53.404;23.498;2023-03-04T02:33:58;18.65;;;8.98;;
73593;SDS011;64760;53.404;23.498;2023-03-04T02:36:27;11.45;;;6.07;;
73593;SDS011;64760;53.404;23.498;2023-03-04T02:38:54;18.13;;;10.13;;
73593;SDS011;64760;53.404;23.498;2023-03-04T02:41:26;18.60;;;9.00;;
73593;SDS011;64760;53.404;23.498;2023-03-04T02:43:55;11.80;;;6.22;;
73593;SDS011;64760;53.404;23.498;2023-03-04T02:46:22;14.50;;;7.35;;
73593;SDS011;64760;53.404;23.498;2023-03-04T02:48:49;13.65;;;7.65;;
73593;SDS011;64760;53.404;23.498;2023-03-04T02:51:17;19.13;;;10.55;;
73593;SDS011;64760;53.404;23.498;2023-03-04T02:53:44;9.52;;;4.18;;
73593;SDS011;64760;53.404;23.498;2023-03-04T02:56:11;14.82;;;7.35;;
73593;SDS011;64760;53.404;23.498;2023-03-04T02:58:37;17.60;;;8.07;;
73593;SDS011;64760;53.404;23.498;2023-03-04T03:01:05;20.23;;;10.43;;
73593;SDS011;64760;53.404;23.498;2023-03-04T03:03:32;16.52;;;10.18;;
73593;SDS011;64760;53.404;23.498;2023-03-04T03:05:59;15.07;;;8.18;;
73593;SDS011;64760;53.404;23.498;2023-03-04T03:08:25;17.85;;;9.57;;
73593;SDS011;64760;53.404;23.498;2023-03-04T03:10:53;19.65;;;7.72;;
73593;SDS011;64760;53.404;23.498;2023-03-04T03:13:20;15.85;;;7.07;;
73593;SDS011;64760;53.404;23.498;2023-03-04T03:15:46;17.58;;;10.10;;
73593;SDS011;64760;53.404;23.498;2023-03-04T03:18:14;15.10;;;7.22;;
73593;SDS011;64760;53.404;23.498;2023-03-04T03:20:41;19.92;;;10.38;;
73593;SDS011;64760;53.404;23.498;2023-03-04T03:23:07;20.88;;;10.70;;
73593;SDS011;64760;53.404;23.498;2023-03-04T03:25:35;21.10;;;11.45;;
73593;SDS011;64760;53.404;23.498;2023-03-04T03:28:01;16.08;;;7.63;;
73593;SDS011;64760;53.404;23.498;2023-03-04T03:30:29;17.58;;;8.55;;
73593;SDS011;64760;53.404;23.498;2023-03-04T03:32:55;22.20;;;9.73;;
73593;SDS011;64760;53.404;23.498;2023-03-04T03:35:22;21.23;;;11.65;;
73593;SDS011;64760;53.404;23.498;2023-03-04T03:37:49;15.32;;;7.35;;
73593;SDS011;64760;53.404;23.498;2023-03-04T03:40:15;19.67;;;8.80;;
73593;SDS011;64760;53.404;23.498;2023-03-04T03:42:43;21.58;;;12.15;;
73593;SDS011;64760;53.404;23.498;2023-03-04T03:45:09;20.33;;;9.88;;
73593;SDS011;64760;53.404;23.498;2023-03-04T03:47:35;24.88;;;11.00;;
73593;SDS011;64760;53.404;23.498;2023-03-04T03:50:03;22.85;;;9.18;;
73593;SDS011;64760;53.404;23.498;2023-03-04T03:52:29;27.02;;;14.40;;
73593;SDS011;64760;53.404;23.498;2023-03-04T03:54:55;20.52;;;10.10;;
73593;SDS011;64760;53.404;23.498;2023-03-04T03:57:21;22.23;;;11.38;;
73593;SDS011;64760;53.404;23.498;2023-03-04T03:59:48;21.08;;;10.35;;
73593;SDS011;64760;53.404;23.498;2023-03-04T04:02:14;26.73;;;9.88;;
73593;SDS011;64760;53.404;23.498;2023-03-04T04:04:40;31.33;;;13.65;;
73593;SDS011;64760;53.404;23.498;2023-03-04T04:07:07;22.60;;;11.63;;
73593;SDS011;64760;53.404;23.498;2023-03-04T04:09:33;24.92;;;11.15;;
73593;SDS011;64760;53.404;23.498;2023-03-04T04:11:59;12.57;;;6.38;;
73593;SDS011;64760;53.404;23.498;2023-03-04T04:14:26;23.85;;;11.68;;
73593;SDS011;64760;53.404;23.498;2023-03-04T04:16:53;29.50;;;15.63;;
73593;SDS011;64760;53.404;23.498;2023-03-04T04:19:19;18.85;;;7.40;;
73593;SDS011;64760;53.404;23.498;2023-03-04T04:21:46;16.10;;;10.38;;
73593;SDS011;64760;53.404;23.498;2023-03-04T04:24:13;24.35;;;10.75;;
73593;SDS011;64760;53.404;23.498;2023-03-04T04:26:40;23.88;;;11.45;;
73593;SDS011;64760;53.404;23.498;2023-03-04T04:29:07;14.80;;;7.95;;
73593;SDS011;64760;53.404;23.498;2023-03-04T04:31:34;18.58;;;8.90;;
73593;SDS011;64760;53.404;23.498;2023-03-04T04:34:01;15.18;;;7.32;;
73593;SDS011;64760;53.404;23.498;2023-03-04T04:36:27;23.20;;;10.13;;
73593;SDS011;64760;53.404;23.498;2023-03-04T04:38:53;20.40;;;9.57;;
73593;SDS011;64760;53.404;23.498;2023-03-04T04:41:21;15.25;;;8.40;;
73593;SDS011;64760;53.404;23.498;2023-03-04T04:43:50;16.15;;;7.85;;
73593;SDS011;64760;53.404;23.498;2023-03-04T04:46:18;22.75;;;9.60;;
73593;SDS011;64760;53.404;23.498;2023-03-04T04:48:45;19.55;;;10.10;;
73593;SDS011;64760;53.404;23.498;2023-03-04T04:51:11;19.88;;;9.65;;
73593;SDS011;64760;53.404;23.498;2023-03-04T04:53:37;19.92;;;9.27;;
73593;SDS011;64760;53.404;23.498;2023-03-04T04:56:07;18.20;;;9.77;;
73593;SDS011;64760;53.404;23.498;2023-03-04T04:58:37;20.65;;;9.15;;
73593;SDS011;64760;53.404;23.498;2023-03-04T05:01:05;22.00;;;12.90;;
73593;SDS011;64760;53.404;23.498;2023-03-04T05:03:32;19.70;;;8.93;;
73593;SDS011;64760;53.404;23.498;2023-03-04T05:06:00;20.75;;;11.65;;
73593;SDS011;64760;53.404;23.498;2023-03-04T05:08:27;12.02;;;6.03;;
73593;SDS011;64760;53.404;23.498;2023-03-04T05:10:53;22.02;;;11.95;;
73593;SDS011;64760;53.404;23.498;2023-03-04T05:13:19;20.63;;;10.63;;
73593;SDS011;64760;53.404;23.498;2023-03-04T05:15:46;24.08;;;12.27;;
73593;SDS011;64760;53.404;23.498;2023-03-04T05:18:12;15.73;;;7.97;;
73593;SDS011;64760;53.404;23.498;2023-03-04T05:20:38;18.55;;;10.80;;
73593;SDS011;64760;53.404;23.498;2023-03-04T05:23:05;18.35;;;9.20;;
73593;SDS011;64760;53.404;23.498;2023-03-04T05:25:31;23.92;;;12.27;;
73593;SDS011;64760;53.404;23.498;2023-03-04T05:27:58;23.73;;;11.77;;
73593;SDS011;64760;53.404;23.498;2023-03-04T05:30:26;22.25;;;12.00;;
73593;SDS011;64760;53.404;23.498;2023-03-04T05:32:53;21.67;;;9.18;;
73593;SDS011;64760;53.404;23.498;2023-03-04T05:35:21;18.05;;;9.60;;
73593;SDS011;64760;53.404;23.498;2023-03-04T05:37:47;21.35;;;10.38;;
73593;SDS011;64760;53.404;23.498;2023-03-04T05:40:13;16.80;;;9.57;;
73593;SDS011;64760;53.404;23.498;2023-03-04T05:42:39;18.67;;;9.52;;
73593;SDS011;64760;53.404;23.498;2023-03-04T05:45:06;16.23;;;8.23;;
73593;SDS011;64760;53.404;23.498;2023-03-04T05:47:33;13.55;;;7.95;;
73593;SDS011;64760;53.404;23.498;2023-03-04T05:49:59;19.13;;;9.68;;
73593;SDS011;64760;53.404;23.498;2023-03-04T05:52:25;15.45;;;6.00;;
73593;SDS011;64760;53.404;23.498;2023-03-04T05:54:51;22.27;;;11.27;;
73593;SDS011;64760;53.404;23.498;2023-03-04T05:57:17;15.57;;;8.10;;
73593;SDS011;64760;53.404;23.498;2023-03-04T05:59:44;11.70;;;6.95;;
73593;SDS011;64760;53.404;23.498;2023-03-04T06:02:11;17.55;;;8.80;;
73593;SDS011;64760;53.404;23.498;2023-03-04T06:04:37;17.23;;;9.02;;
73593;SDS011;64760;53.404;23.498;2023-03-04T06:07:04;22.08;;;11.90;;
73593;SDS011;64760;53.404;23.498;2023-03-04T06:09:30;19.23;;;10.32;;
73593;SDS011;64760;53.404;23.498;2023-03-04T06:11:56;16.63;;;8.30;;
73593;SDS011;64760;53.404;23.498;2023-03-04T06:14:22;17.00;;;8.32;;
73593;SDS011;64760;53.404;23.498;2023-03-04T06:16:49;20.55;;;10.32;;
73593;SDS011;64760;53.404;23.498;2023-03-04T06:19:15;19.85;;;9.55;;
73593;SDS011;64760;53.404;23.498;2023-03-04T06:21:41;14.50;;;7.80;;
73593;SDS011;64760;53.404;23.498;2023-03-04T06:24:08;20.33;;;11.88;;
73593;SDS011;64760;53.404;23.498;2023-03-04T06:26:34;16.25;;;9.00;;
73593;SDS011;64760;53.404;23.498;2023-03-04T06:29:01;18.13;;;9.10;;
73593;SDS011;64760;53.404;23.498;2023-03-04T06:31:27;16.77;;;7.53;;
73593;SDS011;64760;53.404;23.498;2023-03-04T06:33:53;16.33;;;7.32;;
73593;SDS011;64760;53.404;23.498;2023-03-04T06:36:20;23.08;;;13.35;;
73593;SDS011;64760;53.404;23.498;2023-03-04T06:38:46;17.35;;;8.45;;
73593;SDS011;64760;53.404;23.498;2023-03-04T06:41:13;14.30;;;7.30;;
73593;SDS011;64760;53.404;23.498;2023-03-04T06:43:39;18.05;;;9.80;;
73593;SDS011;64760;53.404;23.498;2023-03-04T06:46:06;15.45;;;8.30;;
73593;SDS011;64760;53.404;23.498;2023-03-04T06:48:33;24.90;;;11.85;;
73593;SDS011;64760;53.404;23.498;2023-03-04T06:51:04;22.48;;;11.15;;
73593;SDS011;64760;53.404;23.498;2023-03-04T06:53:35;18.67;;;9.25;;
73593;SDS011;64760;53.404;23.498;2023-03-04T06:58:42;13.63;;;5.97;;
73593;SDS011;64760;53.404;23.498;2023-03-04T07:03:37;14.23;;;8.15;;
73593;SDS011;64760;53.404;23.498;2023-03-04T07:06:03;15.52;;;7.85;;
73593;SDS011;64760;53.404;23.498;2023-03-04T07:08:30;12.38;;;7.18;;
73593;SDS011;64760;53.404;23.498;2023-03-04T07:10:56;18.30;;;9.02;;
73593;SDS011;64760;53.404;23.498;2023-03-04T07:13:22;21.52;;;10.73;;
73593;SDS011;64760;53.404;23.498;2023-03-04T07:15:49;20.80;;;12.18;;
73593;SDS011;64760;53.404;23.498;2023-03-04T07:18:15;16.75;;;9.88;;
73593;SDS011;64760;53.404;23.498;2023-03-04T07:20:42;12.20;;;5.88;;
73593;SDS011;64760;53.404;23.498;2023-03-04T07:23:08;17.00;;;7.03;;
73593;SDS011;64760;53.404;23.498;2023-03-04T07:25:34;16.80;;;8.68;;
73593;SDS011;64760;53.404;23.498;2023-03-04T07:28:01;18.38;;;8.48;;
73593;SDS011;64760;53.404;23.498;2023-03-04T07:30:27;13.00;;;5.97;;
73593;SDS011;64760;53.404;23.498;2023-03-04T07:32:57;10.02;;;6.38;;
73593;SDS011;64760;53.404;23.498;2023-03-04T07:35:26;16.38;;;9.65;;
73593;SDS011;64760;53.404;23.498;2023-03-04T07:37:52;22.45;;;10.52;;
73593;SDS011;64760;53.404;23.498;2023-03-04T07:40:19;12.18;;;6.18;;
73593;SDS011;64760;53.404;23.498;2023-03-04T07:42:52;36.05;;;18.67;;
73593;SDS011;64760;53.404;23.498;2023-03-04T07:45:21;15.38;;;6.30;;
73593;SDS011;64760;53.404;23.498;2023-03-04T07:47:49;15.65;;;7.05;;
73593;SDS011;64760;53.404;23.498;2023-03-04T07:50:16;7.90;;;4.03;;
73593;SDS011;64760;53.404;23.498;2023-03-04T07:52:44;10.68;;;5.63;;
73593;SDS011;64760;53.404;23.498;2023-03-04T07:55:14;17.38;;;9.48;;
73593;SDS011;64760;53.404;23.498;2023-03-04T07:57:41;16.42;;;6.40;;
73593;SDS011;64760;53.404;23.498;2023-03-04T08:00:10;16.45;;;8.88;;
73593;SDS011;64760;53.404;23.498;2023-03-04T08:02:40;14.57;;;6.65;;
73593;SDS011;64760;53.404;23.498;2023-03-04T08:05:07;10.02;;;4.97;;
73593;SDS011;64760;53.404;23.498;2023-03-04T08:07:33;9.65;;;5.40;;
73593;SDS011;64760;53.404;23.498;2023-03-04T08:10:00;13.15;;;5.32;;
73593;SDS011;64760;53.404;23.498;2023-03-04T08:12:27;12.88;;;7.30;;
73593;SDS011;64760;53.404;23.498;2023-03-04T08:14:54;9.20;;;4.20;;
73593;SDS011;64760;53.404;23.498;2023-03-04T08:17:21;9.18;;;4.88;;
73593;SDS011;64760;53.404;23.498;2023-03-04T08:19:47;10.57;;;6.00;;
73593;SDS011;64760;53.404;23.498;2023-03-04T08:22:14;11.68;;;5.65;;
73593;SDS011;64760;53.404;23.498;2023-03-04T08:24:40;13.80;;;7.13;;
73593;SDS011;64760;53.404;23.498;2023-03-04T08:27:06;16.45;;;9.98;;
73593;SDS011;64760;53.404;23.498;2023-03-04T08:29:33;10.93;;;5.95;;
73593;SDS011;64760;53.404;23.498;2023-03-04T08:31:59;12.38;;;5.95;;
73593;SDS011;64760;53.404;23.498;2023-03-04T08:34:26;11.00;;;4.63;;
73593;SDS011;64760;53.404;23.498;2023-03-04T08:36:53;7.85;;;4.15;;
73593;SDS011;64760;53.404;23.498;2023-03-04T08:39:20;14.93;;;6.57;;
73593;SDS011;64760;53.404;23.498;2023-03-04T08:41:47;12.45;;;5.03;;
73593;SDS011;64760;53.404;23.498;2023-03-04T08:44:14;9.98;;;6.22;;
73593;SDS011;64760;53.404;23.498;2023-03-04T08:46:41;12.38;;;5.95;;
73593;SDS011;64760;53.404;23.498;2023-03-04T08:49:09;6.40;;;3.92;;
73593;SDS011;64760;53.404;23.498;2023-03-04T08:54:03;11.18;;;4.60;;
73593;SDS011;64760;53.404;23.498;2023-03-04T08:56:30;12.00;;;4.47;;
73593;SDS011;64760;53.404;23.498;2023-03-04T08:58:57;9.38;;;4.28;;
73593;SDS011;64760;53.404;23.498;2023-03-04T09:01:23;10.82;;;5.88;;
73593;SDS011;64760;53.404;23.498;2023-03-04T09:03:50;8.52;;;5.05;;
73593;SDS011;64760;53.404;23.498;2023-03-04T09:06:16;11.82;;;5.95;;
73593;SDS011;64760;53.404;23.498;2023-03-04T09:08:44;10.75;;;5.40;;
73593;SDS011;64760;53.404;23.498;2023-03-04T09:11:11;22.38;;;9.02;;
73593;SDS011;64760;53.404;23.498;2023-03-04T09:13:38;7.97;;;3.35;;
73593;SDS011;64760;53.404;23.498;2023-03-04T09:16:12;13.68;;;5.18;;
73593;SDS011;64760;53.404;23.498;2023-03-04T09:18:40;12.50;;;5.63;;
73593;SDS011;64760;53.404;23.498;2023-03-04T09:21:07;8.38;;;3.97;;
73593;SDS011;64760;53.404;23.498;2023-03-04T09:23:34;11.50;;;2.75;;
73593;SDS011;64760;53.404;23.498;2023-03-04T09:26:11;4.38;;;2.10;;
73593;SDS011;64760;53.404;23.498;2023-03-04T09:28:39;7.88;;;4.50;;
73593;SDS011;64760;53.404;23.498;2023-03-04T09:31:14;5.95;;;2.97;;
73593;SDS011;64760;53.404;23.498;2023-03-04T09:33:41;10.30;;;4.72;;
73593;SDS011;64760;53.404;23.498;2023-03-04T09:36:08;5.95;;;3.13;;
73593;SDS011;64760;53.404;23.498;2023-03-04T09:38:37;10.52;;;3.72;;
73593;SDS011;64760;53.404;23.498;2023-03-04T09:44:39;4.72;;;2.67;;
73593;SDS011;64760;53.404;23.498;2023-03-04T09:47:17;10.00;;;2.90;;
73593;SDS011;64760;53.404;23.498;2023-03-04T09:49:55;4.35;;;1.65;;
73593;SDS011;64760;53.404;23.498;2023-03-04T09:55:01;5.65;;;3.50;;
73593;SDS011;64760;53.404;23.498;2023-03-04T10:03:04;5.22;;;2.10;;
73593;SDS011;64760;53.404;23.498;2023-03-04T10:08:31;4.95;;;1.83;;
73593;SDS011;64760;53.404;23.498;2023-03-04T10:11:13;4.47;;;2.03;;
73593;SDS011;64760;53.404;23.498;2023-03-04T10:16:28;2.97;;;1.40;;
73593;SDS011;64760;53.404;23.498;2023-03-04T10:19:17;2.47;;;1.15;;
73593;SDS011;64760;53.404;23.498;2023-03-04T10:21:50;4.47;;;2.05;;
73593;SDS011;64760;53.404;23.498;2023-03-04T10:24:18;5.30;;;1.92;;
73593;SDS011;64760;53.404;23.498;2023-03-04T10:26:50;3.58;;;1.52;;
73593;SDS011;64760;53.404;23.498;2023-03-04T10:29:22;3.88;;;2.03;;
73593;SDS011;64760;53.404;23.498;2023-03-04T10:31:49;5.35;;;1.67;;
73593;SDS011;64760;53.404;23.498;2023-03-04T10:34:16;12.10;;;3.42;;
73593;SDS011;64760;53.404;23.498;2023-03-04T10:36:47;7.07;;;3.08;;
73593;SDS011;64760;53.404;23.498;2023-03-04T10:39:20;4.35;;;1.88;;
73593;SDS011;64760;53.404;23.498;2023-03-04T10:42:03;5.90;;;2.53;;
73593;SDS011;64760;53.404;23.498;2023-03-04T10:44:31;6.03;;;3.13;;
73593;SDS011;64760;53.404;23.498;2023-03-04T10:46:59;4.32;;;2.05;;
73593;SDS011;64760;53.404;23.498;2023-03-04T10:49:26;5.20;;;1.70;;
73593;SDS011;64760;53.404;23.498;2023-03-04T10:52:02;9.18;;;3.38;;
73593;SDS011;64760;53.404;23.498;2023-03-04T10:54:41;5.20;;;2.15;;
73593;SDS011;64760;53.404;23.498;2023-03-04T10:59:46;4.65;;;2.45;;
73593;SDS011;64760;53.404;23.498;2023-03-04T11:02:22;4.43;;;1.52;;
73593;SDS011;64760;53.404;23.498;2023-03-04T11:04:56;6.95;;;1.60;;
73593;SDS011;64760;53.404;23.498;2023-03-04T11:07:28;4.57;;;1.45;;
73593;SDS011;64760;53.404;23.498;2023-03-04T11:09:54;4.85;;;2.17;;
73593;SDS011;64760;53.404;23.498;2023-03-04T11:12:33;3.25;;;1.42;;
73593;SDS011;64760;53.404;23.498;2023-03-04T11:15:00;7.93;;;2.20;;
73593;SDS011;64760;53.404;23.498;2023-03-04T11:17:39;4.72;;;1.48;;
73593;SDS011;64760;53.404;23.498;2023-03-04T11:20:14;2.53;;;0.82;;
73593;SDS011;64760;53.404;23.498;2023-03-04T11:22:49;6.13;;;2.08;;
73593;SDS011;64760;53.404;23.498;2023-03-04T11:25:27;2.00;;;0.68;;
73593;SDS011;64760;53.404;23.498;2023-03-04T11:27:59;5.28;;;1.92;;
73593;SDS011;64760;53.404;23.498;2023-03-04T11:30:42;4.32;;;1.08;;
73593;SDS011;64760;53.404;23.498;2023-03-04T11:33:27;2.67;;;1.10;;
73593;SDS011;64760;53.404;23.498;2023-03-04T11:36:11;6.32;;;2.22;;
73593;SDS011;64760;53.404;23.498;2023-03-04T11:38:48;4.40;;;1.58;;
73593;SDS011;64760;53.404;23.498;2023-03-04T11:41:22;2.42;;;1.20;;
73593;SDS011;64760;53.404;23.498;2023-03-04T11:44:02;3.80;;;0.85;;
73593;SDS011;64760;53.404;23.498;2023-03-04T11:52:14;5.18;;;1.45;;
73593;SDS011;64760;53.404;23.498;2023-03-04T11:57:48;3.22;;;1.50;;
73593;SDS011;64760;53.404;23.498;2023-03-04T12:03:20;2.90;;;1.08;;
73593;SDS011;64760;53.404;23.498;2023-03-04T12:06:50;2.33;;;0.85;;
73593;SDS011;64760;53.404;23.498;2023-03-04T12:26:40;3.47;;;1.33;;
73593;SDS011;64760;53.404;23.498;2023-03-04T12:31:51;8.00;;;3.10;;
73593;SDS011;64760;53.404;23.498;2023-03-04T12:41:19;11.30;;;5.93;;
73593;SDS011;64760;53.404;23.498;2023-03-04T12:43:56;90.60;;;10.32;;
73593;SDS011;64760;53.404;23.498;2023-03-04T12:54:49;40.42;;;11.27;;
73593;SDS011;64760;53.404;23.498;2023-03-04T12:57:23;8.15;;;3.85;;
73593;SDS011;64760;53.404;23.498;2023-03-04T13:03:02;6.55;;;3.17;;
73593;SDS011;64760;53.404;23.498;2023-03-04T13:14:03;5.43;;;2.40;;
73593;SDS011;64760;53.404;23.498;2023-03-04T13:19:01;10.23;;;3.67;;
73593;SDS011;64760;53.404;23.498;2023-03-04T13:21:28;5.22;;;1.92;;
73593;SDS011;64760;53.404;23.498;2023-03-04T13:24:00;6.05;;;3.05;;
73593;SDS011;64760;53.404;23.498;2023-03-04T13:27:00;5.03;;;2.28;;
73593;SDS011;64760;53.404;23.498;2023-03-04T13:32:03;7.50;;;2.95;;
73593;SDS011;64760;53.404;23.498;2023-03-04T13:34:41;3.00;;;1.15;;
73593;SDS011;64760;53.404;23.498;2023-03-04T13:51:28;8.75;;;3.03;;
73593;SDS011;64760;53.404;23.498;2023-03-04T13:56:32;7.15;;;2.45;;
73593;SDS011;64760;53.404;23.498;2023-03-04T14:01:35;4.20;;;2.00;;
73593;SDS011;64760;53.404;23.498;2023-03-04T14:06:44;3.63;;;1.45;;
73593;SDS011;64760;53.404;23.498;2023-03-04T14:09:12;3.92;;;2.47;;
73593;SDS011;64760;53.404;23.498;2023-03-04T14:11:42;3.67;;;1.80;;
73593;SDS011;64760;53.404;23.498;2023-03-04T14:14:10;0.55;;;0.55;;
73593;SDS011;64760;53.404;23.498;2023-03-04T14:16:58;3.55;;;1.38;;
73593;SDS011;64760;53.404;23.498;2023-03-04T14:19:30;5.10;;;1.90;;
73593;SDS011;64760;53.404;23.498;2023-03-04T14:21:59;2.88;;;0.90;;
73593;SDS011;64760;53.404;23.498;2023-03-04T14:24:25;1.42;;;0.68;;
73593;SDS011;64760;53.404;23.498;2023-03-04T14:27:25;3.08;;;1.27;;
73593;SDS011;64760;53.404;23.498;2023-03-04T14:29:44;4.65;;;2.45;;
73593;SDS011;64760;53.404;23.498;2023-03-04T14:32:20;6.88;;;2.17;;
73593;SDS011;64760;53.404;23.498;2023-03-04T14:34:50;3.40;;;1.40;;
73593;SDS011;64760;53.404;23.498;2023-03-04T14:40:25;14.40;;;5.43;;
73593;SDS011;64760;53.404;23.498;2023-03-04T14:43:00;5.68;;;2.35;;
73593;SDS011;64760;53.404;23.498;2023-03-04T14:45:34;8.70;;;4.03;;
73593;SDS011;64760;53.404;23.498;2023-03-04T14:48:10;6.32;;;2.63;;
73593;SDS011;64760;53.404;23.498;2023-03-04T14:50:50;5.50;;;2.58;;
73593;SDS011;64760;53.404;23.498;2023-03-04T14:53:20;4.28;;;1.60;;
73593;SDS011;64760;53.404;23.498;2023-03-04T14:55:54;5.95;;;2.83;;
73593;SDS011;64760;53.404;23.498;2023-03-04T15:00:49;2.65;;;1.20;;
73593;SDS011;64760;53.404;23.498;2023-03-04T15:03:55;1.70;;;1.23;;
73593;SDS011;64760;53.404;23.498;2023-03-04T15:06:33;3.42;;;1.48;;
73593;SDS011;64760;53.404;23.498;2023-03-04T15:09:03;3.63;;;1.45;;
73593;SDS011;64760;53.404;23.498;2023-03-04T15:11:48;2.22;;;1.08;;
73593;SDS011;64760;53.404;23.498;2023-03-04T15:22:35;6.32;;;2.75;;
73593;SDS011;64760;53.404;23.498;2023-03-04T15:25:21;6.25;;;2.33;;
73593;SDS011;64760;53.404;23.498;2023-03-04T15:27:48;7.97;;;1.92;;
73593;SDS011;64760;53.404;23.498;2023-03-04T15:32:45;7.13;;;1.95;;
73593;SDS011;64760;53.404;23.498;2023-03-04T15:35:12;6.00;;;2.55;;
73593;SDS011;64760;53.404;23.498;2023-03-04T15:37:41;4.20;;;1.95;;
73593;SDS011;64760;53.404;23.498;2023-03-04T15:40:15;6.82;;;2.58;;
73593;SDS011;64760;53.404;23.498;2023-03-04T15:42:51;4.95;;;1.85;;
73593;SDS011;64760;53.404;23.498;2023-03-04T15:45:19;3.97;;;1.45;;
73593;SDS011;64760;53.404;23.498;2023-03-04T15:47:51;6.35;;;2.88;;
73593;SDS011;64760;53.404;23.498;2023-03-04T15:50:20;6.28;;;2.70;;
73593;SDS011;64760;53.404;23.498;2023-03-04T15:52:46;5.45;;;2.78;;
73593;SDS011;64760;53.404;23.498;2023-03-04T15:55:14;4.03;;;1.67;;
73593;SDS011;64760;53.404;23.498;2023-03-04T15:57:44;3.90;;;1.60;;
73593;SDS011;64760;53.404;23.498;2023-03-04T16:00:19;5.43;;;1.80;;
73593;SDS011;64760;53.404;23.498;2023-03-04T16:02:49;20.05;;;5.55;;
73593;SDS011;64760;53.404;23.498;2023-03-04T16:05:16;5.95;;;3.28;;
73593;SDS011;64760;53.404;23.498;2023-03-04T16:07:44;10.45;;;2.63;;
73593;SDS011;64760;53.404;23.498;2023-03-04T16:12:49;7.45;;;2.40;;
73593;SDS011;64760;53.404;23.498;2023-03-04T16:15:18;6.47;;;2.72;;
73593;SDS011;64760;53.404;23.498;2023-03-04T16:17:46;5.05;;;1.98;;
73593;SDS011;64760;53.404;23.498;2023-03-04T16:20:18;6.80;;;3.00;;
73593;SDS011;64760;53.404;23.498;2023-03-04T16:22:50;3.58;;;1.33;;
73593;SDS011;64760;53.404;23.498;2023-03-04T16:25:20;4.40;;;1.67;;
73593;SDS011;64760;53.404;23.498;2023-03-04T16:27:47;2.60;;;1.25;;
73593;SDS011;64760;53.404;23.498;2023-03-04T16:30:15;6.00;;;2.60;;
73593;SDS011;64760;53.404;23.498;2023-03-04T16:32:48;9.00;;;3.53;;
73593;SDS011;64760;53.404;23.498;2023-03-04T16:35:15;3.17;;;1.85;;
73593;SDS011;64760;53.404;23.498;2023-03-04T16:37:42;7.57;;;3.33;;
73593;SDS011;64760;53.404;23.498;2023-03-04T16:40:10;10.13;;;3.80;;
73593;SDS011;64760;53.404;23.498;2023-03-04T16:42:38;9.80;;;2.63;;
73593;SDS011;64760;53.404;23.498;2023-03-04T16:45:06;8.23;;;3.05;;
73593;SDS011;64760;53.404;23.498;2023-03-04T16:47:36;5.75;;;2.83;;
73593;SDS011;64760;53.404;23.498;2023-03-04T16:50:03;9.32;;;3.08;;
73593;SDS011;64760;53.404;23.498;2023-03-04T16:52:30;5.22;;;2.47;;
73593;SDS011;64760;53.404;23.498;2023-03-04T16:54:58;6.78;;;3.38;;
73593;SDS011;64760;53.404;23.498;2023-03-04T16:57:25;7.18;;;2.22;;
73593;SDS011;64760;53.404;23.498;2023-03-04T16:59:56;4.65;;;2.08;;
73593;SDS011;64760;53.404;23.498;2023-03-04T17:02:22;3.78;;;1.63;;
73593;SDS011;64760;53.404;23.498;2023-03-04T17:04:52;2.85;;;1.60;;